Time;durP1;ratioP1;P1;durP2;ratioP2;P2;SDS_P1;SDS_P2;PMS_P1;PMS_P2;Temp;Humidity;BMP_temperature;BMP_pressure;BME280_temperature;BME280_humidity;BME280_pressure;Samples;Min_cycle;Max_cycle;Signal;HPM_P1;HPM_P2
2022/10/13 00:00:41;;;;;;;5.20;1.98;;;15.70;72.50;;;;;;5054372;28;20962;-82
2022/10/13 00:03:07;;;;;;;5.25;2.00;;;15.70;72.50;;;;;;5047721;28;20025;-82
2022/10/13 00:05:33;;;;;;;4.47;1.75;;;15.70;72.60;;;;;;5057158;28;20036;-81
2022/10/13 00:07:59;;;;;;;4.05;2.05;;;15.70;72.60;;;;;;5048793;28;20060;-81
2022/10/13 00:10:26;;;;;;;7.20;2.17;;;15.70;72.70;;;;;;5037508;28;20017;-82
2022/10/13 00:12:52;;;;;;;5.13;1.95;;;15.70;72.70;;;;;;5035570;28;20026;-81
2022/10/13 00:15:18;;;;;;;4.80;1.98;;;15.70;72.70;;;;;;5036586;28;20044;-81
2022/10/13 00:17:44;;;;;;;3.40;2.13;;;15.70;72.80;;;;;;5036863;28;20089;-82
2022/10/13 00:20:10;;;;;;;5.05;2.03;;;15.70;73.00;;;;;;5037101;28;20096;-82
2022/10/13 00:22:36;;;;;;;5.10;2.20;;;15.70;73.10;;;;;;5050310;28;20025;-82
2022/10/13 00:25:02;;;;;;;5.80;2.97;;;15.60;73.30;;;;;;5076862;28;20035;-82
2022/10/13 00:27:28;;;;;;;4.40;2.30;;;15.60;73.30;;;;;;5062757;28;20487;-81
2022/10/13 00:29:54;;;;;;;7.03;2.78;;;15.70;73.10;;;;;;5036356;28;20029;-82
2022/10/13 00:32:20;;;;;;;4.88;2.35;;;15.60;73.30;;;;;;5035187;28;20063;-82
2022/10/13 00:34:46;;;;;;;4.13;2.50;;;15.70;73.30;;;;;;5036833;28;20025;-82
2022/10/13 00:37:11;;;;;;;6.47;2.45;;;15.70;73.10;;;;;;5036424;28;20102;-81
2022/10/13 00:39:37;;;;;;;7.97;2.13;;;15.70;73.20;;;;;;5036646;28;20025;-81
2022/10/13 00:42:10;;;;;;;5.72;1.80;;;15.70;73.20;;;;;;5036645;28;20060;-81
2022/10/13 00:45:19;;;;;;;11.57;2.72;;;15.70;73.30;;;;;;5055153;28;20076;-81
2022/10/13 00:47:48;;;;;;;7.68;2.38;;;15.60;73.10;;;;;;5053321;28;20037;-81
2022/10/13 00:50:18;;;;;;;5.90;2.58;;;15.70;73.10;;;;;;5047730;28;20099;-81
2022/10/13 00:52:45;;;;;;;7.05;2.03;;;15.70;72.90;;;;;;5035004;28;20056;-81
2022/10/13 00:55:13;;;;;;;3.17;1.98;;;15.70;72.90;;;;;;5036259;28;20127;-81
2022/10/13 00:57:43;;;;;;;4.25;2.88;;;15.70;72.90;;;;;;5035759;28;20044;-81
2022/10/13 01:00:09;;;;;;;4.90;1.90;;;15.70;72.90;;;;;;5034977;28;20132;-81
2022/10/13 01:02:37;;;;;;;6.05;2.15;;;15.70;73.00;;;;;;5035926;28;20400;-81
2022/10/13 01:05:05;;;;;;;5.53;2.17;;;15.70;73.00;;;;;;5043383;28;20517;-81
2022/10/13 01:07:31;;;;;;;6.78;2.17;;;15.70;72.80;;;;;;5036019;28;20033;-81
2022/10/13 01:09:59;;;;;;;4.50;1.98;;;15.70;72.90;;;;;;5037421;28;20033;-81
2022/10/13 01:12:37;;;;;;;7.10;2.10;;;15.60;72.90;;;;;;5054586;28;20029;-81
2022/10/13 01:15:34;;;;;;;4.50;1.83;;;15.60;73.10;;;;;;5052477;28;20057;-81
2022/10/13 01:18:21;;;;;;;4.90;1.98;;;15.60;73.10;;;;;;5035931;28;20025;-81
2022/10/13 01:20:54;;;;;;;4.43;1.90;;;15.70;73.10;;;;;;5035586;28;20021;-82
2022/10/13 01:23:53;;;;;;;8.32;2.38;;;15.60;73.20;;;;;;5061067;28;20024;-81
2022/10/13 01:26:58;;;;;;;8.98;2.53;;;15.70;73.50;;;;;;5054860;28;20028;-81
2022/10/13 01:29:57;;;;;;;5.88;2.05;;;15.70;73.50;;;;;;5055651;28;20379;-81
2022/10/13 01:32:49;;;;;;;6.80;1.77;;;15.60;73.60;;;;;;5041122;28;20029;-82
2022/10/13 01:35:27;;;;;;;6.32;1.90;;;15.60;73.70;;;;;;5044418;28;20507;-82
2022/10/13 01:38:00;;;;;;;4.78;1.85;;;15.60;74.00;;;;;;5034376;28;20022;-82
2022/10/13 01:40:37;;;;;;;3.90;1.80;;;15.50;74.20;;;;;;5033565;28;20025;-81
2022/10/13 01:43:12;;;;;;;3.42;2.10;;;15.50;74.50;;;;;;5035615;28;20037;-82
2022/10/13 01:46:00;;;;;;;4.13;2.10;;;15.50;74.70;;;;;;5035288;28;20033;-82
2022/10/13 01:48:27;;;;;;;5.93;2.28;;;15.50;74.90;;;;;;5033811;28;20069;-81
2022/10/13 01:50:55;;;;;;;4.47;2.30;;;15.50;74.80;;;;;;5051758;28;20496;-81
2022/10/13 01:53:22;;;;;;;7.60;2.08;;;15.50;75.30;;;;;;5055333;28;20031;-81
2022/10/13 01:55:58;;;;;;;8.13;2.42;;;15.40;75.70;;;;;;5055258;28;20105;-82
2022/10/13 01:58:28;;;;;;;6.90;1.92;;;15.40;75.70;;;;;;5047026;28;20029;-81
2022/10/13 02:01:13;;;;;;;3.08;2.10;;;15.40;75.60;;;;;;5035246;28;20033;-82
2022/10/13 02:03:41;;;;;;;7.30;2.53;;;15.40;75.70;;;;;;5035255;28;20026;-81
2022/10/13 02:06:22;;;;;;;6.07;2.63;;;15.30;76.00;;;;;;5034016;28;20026;-82
2022/10/13 02:09:16;;;;;;;8.27;3.00;;;15.40;75.80;;;;;;5039106;28;20112;-82
2022/10/13 02:11:50;;;;;;;6.45;2.53;;;15.30;75.80;;;;;;5039547;28;20028;-82
2022/10/13 02:14:20;;;;;;;6.72;2.53;;;15.30;76.00;;;;;;5039345;28;20080;-82
2022/10/13 02:16:48;;;;;;;7.13;2.78;;;15.30;75.90;;;;;;5039101;28;20029;-82
2022/10/13 02:19:16;;;;;;;8.85;3.03;;;15.30;75.90;;;;;;5038687;28;20022;-82
2022/10/13 02:21:42;;;;;;;4.90;2.47;;;15.30;75.80;;;;;;5039289;28;20495;-82
2022/10/13 02:24:08;;;;;;;4.72;2.72;;;15.30;76.10;;;;;;5078655;28;20028;-82
2022/10/13 02:26:35;;;;;;;8.23;3.08;;;15.20;76.40;;;;;;5039526;28;20415;-82
2022/10/13 02:29:11;;;;;;;5.40;2.80;;;15.30;76.20;;;;;;5039132;28;20052;-82
2022/10/13 02:31:37;;;;;;;5.20;2.83;;;15.20;76.30;;;;;;5038846;28;20356;-82
2022/10/13 02:34:04;;;;;;;5.22;2.90;;;15.20;76.60;;;;;;5038918;28;20030;-82
2022/10/13 02:36:29;;;;;;;10.27;4.45;;;15.20;76.60;;;;;;5038326;28;20067;-82
2022/10/13 02:38:55;;;;;;;5.43;2.45;;;15.20;76.80;;;;;;5039116;28;20018;-82
2022/10/13 02:41:21;;;;;;;4.95;2.75;;;15.20;77.00;;;;;;5038892;28;20029;-82
2022/10/13 02:43:46;;;;;;;5.13;2.95;;;15.20;76.80;;;;;;5038661;28;20036;-82
2022/10/13 02:46:12;;;;;;;5.47;2.63;;;15.20;77.00;;;;;;5037377;28;20025;-82
2022/10/13 02:48:37;;;;;;;7.57;2.85;;;15.20;77.00;;;;;;5038762;28;20591;-82
2022/10/13 02:51:03;;;;;;;8.70;2.70;;;15.10;77.20;;;;;;5038591;28;20110;-82
2022/10/13 02:53:29;;;;;;;8.88;3.42;;;15.10;77.30;;;;;;5037284;28;20056;-82
2022/10/13 02:55:55;;;;;;;5.88;3.10;;;15.10;77.50;;;;;;5040067;28;20025;-82
2022/10/13 02:58:20;;;;;;;5.65;2.83;;;15.10;77.60;;;;;;5058459;28;20027;-82
2022/10/13 03:08:04;;;;;;;6.38;2.95;;;15.00;77.70;;;;;;5045015;28;20029;-82
2022/10/13 03:10:30;;;;;;;6.78;3.10;;;15.10;77.90;;;;;;5058344;28;20049;-83
2022/10/13 03:12:57;;;;;;;5.55;2.70;;;15.10;77.80;;;;;;5058110;28;20044;-81
2022/10/13 03:15:23;;;;;;;5.75;2.63;;;15.00;77.80;;;;;;5054417;28;20060;-83
2022/10/13 03:17:49;;;;;;;9.05;2.90;;;15.00;77.90;;;;;;5038108;28;20028;-84
2022/10/13 03:20:15;;;;;;;4.95;3.00;;;15.00;78.10;;;;;;5036130;28;20412;-84
2022/10/13 03:22:41;;;;;;;8.38;3.35;;;15.00;78.10;;;;;;5053999;28;20028;-84
2022/10/13 03:25:06;;;;;;;7.75;3.40;;;15.00;78.00;;;;;;5061486;28;20033;-84
2022/10/13 03:27:32;;;;;;;7.47;2.83;;;15.00;78.20;;;;;;5038032;28;20036;-80
2022/10/13 03:29:58;;;;;;;4.15;2.58;;;15.00;78.30;;;;;;5038095;28;20057;-83
2022/10/13 03:32:24;;;;;;;7.05;2.47;;;15.00;78.20;;;;;;5035972;28;20029;-84
2022/10/13 03:34:50;;;;;;;5.30;2.47;;;15.00;78.50;;;;;;5037661;28;20060;-84
2022/10/13 03:37:16;;;;;;;6.65;3.03;;;15.00;78.50;;;;;;5037871;28;20022;-81
2022/10/13 03:39:42;;;;;;;6.35;3.15;;;15.00;78.30;;;;;;5037803;28;20450;-84
2022/10/13 03:42:08;;;;;;;5.57;2.72;;;15.10;78.20;;;;;;5037672;28;20461;-81
2022/10/13 03:44:34;;;;;;;8.15;3.05;;;15.10;78.30;;;;;;5037865;28;20029;-84
2022/10/13 03:47:00;;;;;;;3.78;2.53;;;15.10;78.30;;;;;;5037784;28;20034;-81
2022/10/13 03:49:25;;;;;;;5.20;2.83;;;15.00;78.50;;;;;;5037042;28;20026;-84
2022/10/13 03:51:51;;;;;;;7.32;2.72;;;15.00;78.60;;;;;;5035581;28;20045;-81
2022/10/13 03:54:17;;;;;;;6.10;2.60;;;15.00;78.60;;;;;;5037663;28;20691;-81
2022/10/13 03:56:43;;;;;;;5.13;2.55;;;15.00;78.50;;;;;;5037242;28;20029;-83
2022/10/13 03:59:11;;;;;;;8.38;2.80;;;15.00;78.60;;;;;;5036258;28;20112;-84
2022/10/13 04:01:38;;;;;;;4.70;2.60;;;15.10;78.60;;;;;;5036027;28;20071;-80
2022/10/13 04:04:04;;;;;;;8.82;2.63;;;15.00;78.80;;;;;;5037231;28;20025;-84
2022/10/13 04:06:30;;;;;;;6.65;2.95;;;15.00;78.90;;;;;;5036527;28;20040;-84
2022/10/13 04:08:57;;;;;;;6.82;2.92;;;15.10;78.80;;;;;;5037400;28;20025;-81
2022/10/13 04:11:23;;;;;;;7.85;3.20;;;15.00;78.70;;;;;;5035830;28;20025;-83
2022/10/13 04:13:48;;;;;;;4.00;2.88;;;15.00;78.90;;;;;;5039129;28;20074;-83
2022/10/13 04:16:15;;;;;;;7.30;3.83;;;15.00;79.00;;;;;;5037014;28;20112;-84
2022/10/13 04:18:42;;;;;;;3.25;2.30;;;15.00;78.90;;;;;;5036282;28;20032;-81
2022/10/13 04:21:13;;;;;;;5.60;2.72;;;15.10;78.90;;;;;;5037211;28;20111;-85
2022/10/13 04:23:39;;;;;;;7.85;3.05;;;15.00;78.90;;;;;;5068695;28;20443;-89
2022/10/13 04:26:05;;;;;;;7.68;2.67;;;15.10;78.90;;;;;;5076890;28;20052;-84
2022/10/13 04:28:36;;;;;;;4.28;2.40;;;15.10;78.80;;;;;;5069753;28;20748;-85
2022/10/13 04:31:02;;;;;;;5.45;2.97;;;15.00;79.30;;;;;;5036075;28;20021;-86
2022/10/13 04:33:28;;;;;;;6.25;3.28;;;15.00;79.50;;;;;;5043827;28;20021;-86
2022/10/13 04:35:54;;;;;;;4.47;2.70;;;15.00;79.70;;;;;;5048298;28;20031;-78
2022/10/13 04:38:19;;;;;;;5.60;2.63;;;15.00;79.50;;;;;;5035148;28;20452;-79
2022/10/13 04:40:45;;;;;;;6.07;3.35;;;15.00;79.30;;;;;;5036521;28;20053;-79
2022/10/13 04:43:11;;;;;;;7.45;3.47;;;15.00;79.30;;;;;;5036109;28;20151;-80
2022/10/13 04:45:37;;;;;;;6.90;3.42;;;15.10;79.20;;;;;;5050935;28;20029;-78
2022/10/13 04:48:03;;;;;;;8.07;3.92;;;15.20;78.90;;;;;;5043841;28;20025;-80
2022/10/13 04:50:29;;;;;;;8.05;3.00;;;15.10;79.10;;;;;;5048872;28;20144;-79
2022/10/13 04:52:54;;;;;;;9.85;4.05;;;15.10;79.10;;;;;;5049418;28;20056;-81
2022/10/13 04:55:20;;;;;;;6.53;3.17;;;15.10;79.30;;;;;;5036304;28;20599;-78
2022/10/13 04:57:46;;;;;;;9.85;3.40;;;15.10;79.30;;;;;;5036316;28;20056;-80
2022/10/13 05:00:12;;;;;;;5.78;3.22;;;15.10;79.40;;;;;;5035943;28;20025;-82
2022/10/13 05:02:38;;;;;;;5.63;3.55;;;15.10;79.40;;;;;;5047210;28;20495;-80
2022/10/13 05:05:04;;;;;;;7.18;3.60;;;15.10;79.30;;;;;;5050218;28;20051;-81
2022/10/13 05:07:31;;;;;;;5.57;3.38;;;15.20;79.60;;;;;;5050848;28;20041;-81
2022/10/13 05:09:59;;;;;;;6.45;3.22;;;15.20;79.60;;;;;;5047734;28;20052;-78
2022/10/13 05:12:24;;;;;;;6.68;3.35;;;15.10;79.60;;;;;;5042465;28;20022;-80
2022/10/13 05:14:50;;;;;;;6.30;3.50;;;15.20;79.80;;;;;;5045066;28;20025;-80
2022/10/13 05:17:16;;;;;;;6.70;3.50;;;15.20;79.70;;;;;;5047325;28;20026;-82
2022/10/13 05:19:41;;;;;;;7.30;3.60;;;15.20;79.90;;;;;;5036484;28;20021;-80
2022/10/13 05:22:07;;;;;;;8.45;3.20;;;15.20;80.00;;;;;;5045883;28;20050;-80
2022/10/13 05:24:35;;;;;;;9.60;4.30;;;15.10;80.00;;;;;;5045484;28;20115;-80
2022/10/13 05:27:12;;;;;;;4.55;3.10;;;15.20;80.00;;;;;;5049790;28;20041;-79
2022/10/13 05:29:38;;;;;;;6.85;3.22;;;15.20;80.00;;;;;;5032918;28;20102;-80
2022/10/13 05:32:04;;;;;;;7.82;3.88;;;15.20;80.40;;;;;;5033270;28;20030;-80
2022/10/13 05:34:31;;;;;;;9.10;3.20;;;15.20;80.50;;;;;;5033469;28;20037;-80
2022/10/13 05:36:58;;;;;;;7.07;3.88;;;15.20;80.70;;;;;;5035363;28;20025;-80
2022/10/13 05:39:23;;;;;;;5.63;3.72;;;15.20;80.60;;;;;;5035243;28;20029;-80
2022/10/13 05:41:49;;;;;;;7.20;3.63;;;15.20;80.90;;;;;;5035432;28;20071;-80
2022/10/13 05:44:16;;;;;;;7.72;3.33;;;15.20;80.90;;;;;;5035636;28;20068;-80
2022/10/13 05:46:42;;;;;;;8.02;3.50;;;15.20;80.80;;;;;;5034375;28;20048;-79
2022/10/13 05:49:08;;;;;;;5.53;3.28;;;15.20;80.90;;;;;;5035778;28;20561;-79
2022/10/13 05:51:41;;;;;;;10.05;4.15;;;15.20;81.10;;;;;;5035366;28;20053;-79
2022/10/13 05:54:25;;;;;;;5.55;3.20;;;15.20;80.90;;;;;;5034379;28;20073;-79
2022/10/13 05:56:56;;;;;;;8.57;3.70;;;15.30;80.90;;;;;;5034176;28;20029;-80
2022/10/13 05:59:23;;;;;;;10.85;4.38;;;15.30;81.20;;;;;;5034662;28;20037;-80
2022/10/13 06:01:51;;;;;;;7.43;3.25;;;15.30;81.10;;;;;;5035562;28;20061;-79
2022/10/13 06:04:23;;;;;;;6.13;3.65;;;15.20;81.60;;;;;;5035626;28;20029;-79
2022/10/13 06:06:49;;;;;;;5.40;3.58;;;15.20;81.70;;;;;;5034478;28;20079;-80
2022/10/13 06:09:15;;;;;;;7.00;3.47;;;15.20;81.80;;;;;;5035640;28;20037;-79
2022/10/13 06:11:41;;;;;;;7.18;3.97;;;15.30;82.10;;;;;;5035592;28;20025;-79
2022/10/13 06:14:06;;;;;;;7.63;3.53;;;15.20;82.20;;;;;;5036978;28;20033;-79
2022/10/13 06:16:35;;;;;;;5.93;3.88;;;15.30;82.10;;;;;;5055409;28;20021;-79
2022/10/13 06:19:02;;;;;;;6.63;3.75;;;15.30;82.10;;;;;;5054089;28;20049;-79
2022/10/13 06:21:28;;;;;;;6.20;3.50;;;15.30;82.00;;;;;;5054029;28;20027;-79
2022/10/13 06:23:53;;;;;;;8.05;3.53;;;15.40;82.40;;;;;;5051563;28;20115;-80
2022/10/13 06:26:19;;;;;;;7.43;3.70;;;15.30;82.50;;;;;;5055361;28;20100;-80
2022/10/13 06:28:44;;;;;;;5.43;3.72;;;15.40;82.40;;;;;;5055284;28;20108;-80
2022/10/13 06:31:10;;;;;;;6.07;3.47;;;15.50;82.80;;;;;;5055081;28;20533;-79
2022/10/13 06:33:36;;;;;;;9.18;3.50;;;15.40;82.90;;;;;;5038255;28;20049;-80
2022/10/13 06:36:05;;;;;;;9.18;3.97;;;15.50;83.00;;;;;;5034194;28;20514;-79
2022/10/13 06:38:32;;;;;;;5.97;3.22;;;15.50;83.40;;;;;;5048181;28;20039;-79
2022/10/13 06:41:03;;;;;;;7.28;3.55;;;15.50;83.50;;;;;;5055190;28;20025;-80
2022/10/13 06:43:28;;;;;;;9.45;3.85;;;15.50;83.60;;;;;;5055249;28;20029;-80
2022/10/13 06:45:58;;;;;;;8.25;3.92;;;15.60;83.60;;;;;;5055141;28;20025;-79
2022/10/13 06:48:24;;;;;;;8.38;4.05;;;15.60;83.80;;;;;;5038593;28;20097;-80
2022/10/13 06:50:49;;;;;;;5.93;3.88;;;15.60;83.80;;;;;;5035095;28;20531;-79
2022/10/13 06:53:15;;;;;;;7.85;3.58;;;15.60;84.00;;;;;;5035190;28;20018;-79
2022/10/13 06:55:42;;;;;;;5.00;3.20;;;15.60;84.00;;;;;;5038128;28;20038;-80
2022/10/13 06:58:09;;;;;;;4.70;3.35;;;15.70;83.80;;;;;;5038753;28;20018;-80
2022/10/13 07:00:35;;;;;;;9.02;4.00;;;15.70;84.00;;;;;;5037465;28;20034;-79
2022/10/13 07:03:00;;;;;;;6.70;3.47;;;15.70;84.10;;;;;;5038685;28;20022;-80
2022/10/13 07:05:26;;;;;;;8.32;3.40;;;15.70;84.00;;;;;;5053637;28;20094;-79
2022/10/13 07:07:52;;;;;;;5.80;3.92;;;15.70;83.90;;;;;;5058595;28;20568;-80
2022/10/13 07:10:18;;;;;;;6.13;3.53;;;15.80;84.10;;;;;;5041489;28;20043;-80
2022/10/13 07:12:44;;;;;;;8.10;3.70;;;15.80;84.00;;;;;;5042738;28;20094;-80
2022/10/13 07:15:10;;;;;;;5.20;3.28;;;15.80;84.10;;;;;;5058507;28;20029;-79
2022/10/13 07:17:36;;;;;;;5.00;3.35;;;15.80;84.10;;;;;;5043839;28;20108;-80
2022/10/13 07:20:03;;;;;;;11.25;3.85;;;15.80;84.20;;;;;;5038517;28;20112;-79
2022/10/13 07:22:30;;;;;;;7.15;3.50;;;15.80;84.30;;;;;;5039391;28;20031;-81
2022/10/13 07:24:55;;;;;;;6.22;3.58;;;15.80;84.30;;;;;;5038394;28;20021;-79
2022/10/13 07:27:21;;;;;;;11.55;3.63;;;15.90;84.30;;;;;;5037050;28;20036;-81
2022/10/13 07:29:47;;;;;;;10.07;3.53;;;15.90;84.20;;;;;;5038637;28;20029;-80
2022/10/13 07:32:12;;;;;;;6.63;3.65;;;15.90;84.10;;;;;;5038431;28;20495;-79
2022/10/13 07:34:38;;;;;;;5.82;3.42;;;16.00;84.30;;;;;;5038261;28;20033;-81
2022/10/13 07:37:04;;;;;;;4.78;3.28;;;15.90;84.30;;;;;;5038205;28;20033;-79
2022/10/13 07:39:29;;;;;;;7.93;3.50;;;15.90;84.40;;;;;;5038143;28;20032;-80
2022/10/13 07:41:55;;;;;;;4.75;3.20;;;16.00;84.30;;;;;;5036712;28;20064;-79
2022/10/13 07:44:21;;;;;;;6.32;3.95;;;15.90;84.60;;;;;;5038136;28;20087;-79
2022/10/13 07:46:47;;;;;;;8.30;3.88;;;16.00;84.60;;;;;;5038018;28;20059;-79
2022/10/13 07:49:13;;;;;;;9.48;4.10;;;16.00;84.50;;;;;;5037858;28;20025;-79
2022/10/13 07:51:38;;;;;;;5.82;3.50;;;16.00;84.60;;;;;;5036234;28;20049;-79
2022/10/13 07:54:04;;;;;;;6.22;4.03;;;16.00;84.70;;;;;;5037668;28;20022;-79
2022/10/13 07:56:30;;;;;;;7.43;4.18;;;16.00;84.80;;;;;;5037820;28;20036;-79
2022/10/13 07:58:56;;;;;;;9.30;4.68;;;16.00;84.90;;;;;;5037570;28;20022;-79
2022/10/13 08:01:21;;;;;;;6.00;3.50;;;16.00;84.90;;;;;;5037668;28;20026;-79
2022/10/13 08:03:47;;;;;;;4.90;4.05;;;16.00;85.10;;;;;;5036151;28;20408;-80
2022/10/13 08:06:13;;;;;;;8.07;4.38;;;16.00;85.20;;;;;;5037363;28;20030;-80
2022/10/13 08:08:39;;;;;;;10.52;3.83;;;16.00;85.40;;;;;;5037501;28;20064;-79
2022/10/13 08:11:11;;;;;;;8.23;3.80;;;16.10;85.30;;;;;;5037361;28;20032;-79
2022/10/13 08:13:37;;;;;;;8.40;4.47;;;16.10;85.30;;;;;;5036185;28;20017;-79
2022/10/13 08:16:03;;;;;;;4.78;3.63;;;16.00;85.50;;;;;;5037338;28;20040;-79
2022/10/13 08:18:29;;;;;;;8.63;4.30;;;16.10;85.40;;;;;;5037206;28;20025;-79
2022/10/13 08:20:58;;;;;;;7.85;4.00;;;16.20;85.40;;;;;;5037287;28;20025;-79
2022/10/13 08:23:24;;;;;;;7.75;4.13;;;16.20;85.30;;;;;;5064968;28;20048;-79
2022/10/13 08:25:50;;;;;;;10.05;4.53;;;16.20;85.30;;;;;;5057598;28;20090;-80
2022/10/13 08:28:29;;;;;;;6.50;3.50;;;16.30;85.20;;;;;;5057010;28;20025;-80
2022/10/13 08:30:58;;;;;;;7.65;3.70;;;16.30;85.20;;;;;;5052275;28;20021;-80
2022/10/13 08:33:24;;;;;;;7.18;3.53;;;16.40;85.00;;;;;;5037183;28;20037;-80
2022/10/13 08:35:50;;;;;;;7.68;3.28;;;16.40;85.00;;;;;;5037016;28;20087;-80
2022/10/13 08:38:16;;;;;;;7.15;3.42;;;16.50;85.10;;;;;;5035711;28;20056;-79
2022/10/13 08:40:47;;;;;;;12.50;3.83;;;16.50;85.00;;;;;;5036925;28;20044;-79
2022/10/13 08:43:17;;;;;;;7.95;4.03;;;16.60;85.10;;;;;;5050034;28;20044;-81
2022/10/13 08:45:42;;;;;;;7.97;3.97;;;16.70;84.90;;;;;;5057029;28;20103;-80
2022/10/13 08:48:14;;;;;;;8.52;3.22;;;16.70;84.70;;;;;;5046173;28;20065;-79
2022/10/13 08:50:43;;;;;;;6.18;3.17;;;16.80;84.60;;;;;;5036567;28;20053;-80
2022/10/13 08:53:23;;;;;;;6.72;3.15;;;16.80;84.50;;;;;;5036553;28;20025;-79
2022/10/13 08:56:18;;;;;;;7.40;3.33;;;16.80;84.40;;;;;;5052840;28;20441;-80
2022/10/13 08:58:44;;;;;;;6.43;2.72;;;16.80;84.50;;;;;;5053328;28;20396;-78
2022/10/13 09:01:09;;;;;;;5.63;2.72;;;16.80;84.50;;;;;;5036472;28;20117;-79
2022/10/13 09:03:49;;;;;;;6.32;3.13;;;16.80;84.50;;;;;;5049403;28;20068;-80
2022/10/13 09:06:36;;;;;;;8.30;3.25;;;16.80;84.60;;;;;;5056462;28;20518;-78
2022/10/13 09:09:07;;;;;;;4.63;2.70;;;16.80;84.60;;;;;;5056116;28;20040;-79
2022/10/13 09:11:39;;;;;;;6.03;3.33;;;16.90;84.60;;;;;;5053551;28;20040;-79
2022/10/13 09:14:08;;;;;;;6.28;3.22;;;17.00;84.50;;;;;;5036313;28;20021;-80
2022/10/13 09:16:41;;;;;;;7.13;3.38;;;17.00;84.50;;;;;;5035726;28;20029;-79
2022/10/13 09:19:35;;;;;;;4.95;3.20;;;17.00;84.50;;;;;;5036032;28;20021;-80
2022/10/13 09:22:24;;;;;;;10.93;3.45;;;17.00;84.50;;;;;;5040789;28;20404;-79
2022/10/13 09:25:07;;;;;;;9.32;3.65;;;17.00;84.50;;;;;;5074755;28;20024;-80
2022/10/13 09:27:58;;;;;;;5.00;3.13;;;17.00;84.50;;;;;;5035593;28;20090;-79
2022/10/13 09:30:39;;;;;;;5.80;3.22;;;16.90;84.70;;;;;;5036150;28;20403;-80
2022/10/13 09:33:07;;;;;;;6.07;2.80;;;17.00;84.80;;;;;;5035840;28;20057;-80
2022/10/13 09:35:34;;;;;;;5.88;3.28;;;17.00;84.80;;;;;;5035777;28;20450;-79
2022/10/13 09:38:21;;;;;;;9.57;4.15;;;16.90;84.80;;;;;;5035940;28;20492;-80
2022/10/13 09:41:07;;;;;;;9.15;4.57;;;17.00;84.90;;;;;;5034629;28;20017;-79
2022/10/13 09:43:58;;;;;;;7.78;3.70;;;17.00;84.90;;;;;;5035871;28;20491;-80
2022/10/13 09:46:34;;;;;;;7.03;3.63;;;17.00;85.00;;;;;;5037395;28;20068;-80
2022/10/13 09:49:19;;;;;;;9.43;3.70;;;17.10;85.10;;;;;;5035674;28;20033;-80
2022/10/13 09:51:46;;;;;;;10.65;3.70;;;17.10;85.20;;;;;;5035426;28;20504;-80
2022/10/13 09:54:37;;;;;;;6.28;3.40;;;17.10;85.20;;;;;;5035672;28;20029;-79
2022/10/13 09:57:10;;;;;;;8.13;3.88;;;17.20;85.30;;;;;;5034273;28;20040;-80
2022/10/13 09:59:49;;;;;;;9.90;3.55;;;17.20;85.20;;;;;;5035538;28;20059;-79
2022/10/13 10:02:42;;;;;;;9.57;2.93;;;17.20;85.20;;;;;;5035609;28;20035;-80
2022/10/13 10:05:23;;;;;;;7.40;2.95;;;17.20;85.10;;;;;;5035510;28;20271;-80
2022/10/13 10:07:50;;;;;;;9.25;2.90;;;17.20;85.30;;;;;;5035644;28;20057;-79
2022/10/13 10:10:28;;;;;;;6.32;3.42;;;17.30;85.20;;;;;;5034576;28;20491;-79
2022/10/13 10:12:54;;;;;;;11.40;3.03;;;17.20;85.10;;;;;;5045237;28;20087;-80
2022/10/13 10:15:28;;;;;;;6.20;3.53;;;17.30;85.10;;;;;;5055370;28;20017;-82
2022/10/13 10:18:06;;;;;;;8.60;3.30;;;17.30;85.10;;;;;;5055479;28;20028;-78
2022/10/13 10:20:40;;;;;;;6.82;2.92;;;17.20;84.80;;;;;;5051671;28;20017;-78
2022/10/13 10:23:20;;;;;;;8.77;2.85;;;17.30;84.70;;;;;;5058190;28;20411;-84
2022/10/13 10:26:01;;;;;;;7.07;3.00;;;17.30;85.00;;;;;;5075518;28;20025;-80
2022/10/13 10:28:35;;;;;;;3.58;2.47;;;17.30;85.20;;;;;;5073031;28;20044;-77
2022/10/13 10:31:37;;;;;;;4.35;2.60;;;17.30;85.00;;;;;;5058975;28;20074;-79
2022/10/13 10:34:27;;;;;;;9.77;3.35;;;17.40;84.80;;;;;;5059254;28;20036;-78
2022/10/13 10:37:15;;;;;;;6.43;2.88;;;17.40;84.80;;;;;;5037782;28;20075;-80
2022/10/13 10:39:47;;;;;;;6.57;3.50;;;17.50;84.80;;;;;;5041465;28;20038;-80
2022/10/13 10:42:16;;;;;;;6.78;3.10;;;17.40;84.70;;;;;;5037995;28;20033;-80
2022/10/13 10:44:46;;;;;;;6.13;3.42;;;17.50;84.90;;;;;;5051698;28;20475;-81
2022/10/13 10:47:23;;;;;;;6.57;3.33;;;17.40;85.00;;;;;;5040416;28;20059;-81
2022/10/13 10:49:57;;;;;;;10.85;4.63;;;17.40;85.00;;;;;;5045584;28;20033;-80
2022/10/13 10:52:32;;;;;;;5.88;3.70;;;17.40;85.20;;;;;;5037625;28;20073;-80
2022/10/13 10:55:14;;;;;;;9.75;3.80;;;17.40;85.30;;;;;;5038844;28;20476;-80
2022/10/13 10:58:17;;;;;;;6.32;3.60;;;17.40;85.30;;;;;;5038877;28;20018;-79
2022/10/13 11:01:14;;;;;;;6.35;3.55;;;17.40;85.40;;;;;;5049582;28;20025;-82
2022/10/13 11:03:57;;;;;;;8.05;3.83;;;17.40;85.50;;;;;;5044631;28;20474;-80
2022/10/13 11:06:25;;;;;;;7.15;3.40;;;17.40;85.40;;;;;;5037465;28;20025;-80
2022/10/13 11:08:50;;;;;;;4.93;2.85;;;17.50;85.60;;;;;;5038631;28;20069;-81
2022/10/13 11:11:19;;;;;;;7.63;3.13;;;17.50;85.40;;;;;;5038553;28;20029;-79
2022/10/13 11:13:52;;;;;;;3.30;2.35;;;17.50;85.40;;;;;;5037209;28;20037;-85
2022/10/13 11:16:40;;;;;;;5.38;2.42;;;17.40;85.30;;;;;;5039430;28;20026;-87
2022/10/13 11:19:32;;;;;;;3.17;1.98;;;17.30;85.10;;;;;;5037986;28;20064;-82
2022/10/13 11:21:57;;;;;;;3.08;1.83;;;17.40;85.40;;;;;;5041376;28;20381;-83
2022/10/13 11:24:32;;;;;;;4.28;1.67;;;17.30;85.10;;;;;;5078372;28;20070;-83
2022/10/13 11:27:18;;;;;;;2.30;1.30;;;17.30;85.00;;;;;;5048395;28;20029;-82
2022/10/13 11:29:53;;;;;;;3.13;1.60;;;17.30;84.70;;;;;;5056335;28;20508;-81
2022/10/13 11:35:06;;;;;;;2.17;1.30;;;17.30;84.70;;;;;;5038522;28;20033;-82
2022/10/13 11:37:56;;;;;;;3.17;1.10;;;17.30;84.60;;;;;;5038526;28;20030;-77
2022/10/13 11:40:43;;;;;;;2.75;1.00;;;17.30;84.50;;;;;;5037318;28;20033;-80
2022/10/13 11:43:28;;;;;;;2.97;1.20;;;17.30;84.50;;;;;;5038000;28;20136;-82
2022/10/13 11:45:56;;;;;;;3.20;1.23;;;17.30;84.50;;;;;;5037756;28;20036;-81
2022/10/13 11:48:35;;;;;;;1.83;1.13;;;17.30;84.60;;;;;;5036725;28;20052;-83
2022/10/13 11:51:24;;;;;;;2.90;1.15;;;17.30;84.50;;;;;;5036341;28;20080;-79
2022/10/13 11:54:19;;;;;;;1.52;1.08;;;17.30;84.40;;;;;;5036459;28;20519;-80
2022/10/13 11:56:52;;;;;;;0.93;0.50;;;17.30;84.20;;;;;;5050023;28;20037;-82
2022/10/13 11:59:44;;;;;;;3.10;1.10;;;17.30;84.30;;;;;;5056296;28;20483;-79
2022/10/13 12:02:09;;;;;;;1.35;0.90;;;17.30;84.60;;;;;;5047841;28;20036;-80
2022/10/13 12:04:36;;;;;;;3.28;1.23;;;17.40;84.80;;;;;;5036471;28;20396;-82
2022/10/13 12:07:09;;;;;;;2.15;1.15;;;17.40;85.00;;;;;;5037282;28;20020;-80
2022/10/13 12:10:00;;;;;;;2.20;1.20;;;17.50;84.90;;;;;;5037393;28;20025;-81
2022/10/13 12:12:26;;;;;;;2.25;1.35;;;17.50;85.20;;;;;;5049192;28;20037;-80
2022/10/13 12:14:54;;;;;;;3.83;1.60;;;17.40;85.30;;;;;;5057336;28;20029;-81
2022/10/13 12:17:31;;;;;;;2.78;1.13;;;17.40;85.40;;;;;;5050611;28;20026;-80
2022/10/13 12:20:00;;;;;;;3.65;1.92;;;17.40;85.50;;;;;;5047246;28;20084;-81
2022/10/13 12:22:27;;;;;;;4.18;1.63;;;17.50;85.40;;;;;;5048600;28;20025;-81
2022/10/13 12:25:04;;;;;;;4.13;2.15;;;17.50;85.30;;;;;;5047861;28;20468;-82
2022/10/13 12:27:41;;;;;;;6.65;2.65;;;17.60;85.40;;;;;;5048108;28;20025;-80
2022/10/13 12:30:23;;;;;;;3.75;1.88;;;17.60;85.40;;;;;;5056112;28;20055;-80
2022/10/13 12:32:51;;;;;;;5.15;2.72;;;17.60;85.30;;;;;;5042412;28;20052;-82
2022/10/13 12:35:20;;;;;;;4.65;2.38;;;17.60;85.20;;;;;;5035995;28;20065;-82
2022/10/13 12:37:46;;;;;;;5.10;2.10;;;17.60;85.10;;;;;;5036797;28;20480;-81
2022/10/13 12:40:15;;;;;;;3.05;2.08;;;17.60;85.30;;;;;;5035805;28;20408;-81
2022/10/13 12:42:41;;;;;;;3.63;1.98;;;17.60;85.20;;;;;;5044840;28;20017;-80
2022/10/13 12:45:15;;;;;;;2.65;1.73;;;17.60;85.40;;;;;;5044506;28;20042;-84
2022/10/13 12:47:44;;;;;;;1.70;1.40;;;17.60;85.20;;;;;;5046563;28;20028;-82
2022/10/13 12:50:27;;;;;;;2.42;1.40;;;17.60;85.30;;;;;;5045339;28;20029;-82
2022/10/13 12:53:01;;;;;;;2.85;1.63;;;17.50;85.10;;;;;;5039642;28;20107;-83
2022/10/13 12:55:27;;;;;;;2.10;1.27;;;17.50;85.20;;;;;;5044046;28;20032;-84
2022/10/13 12:57:53;;;;;;;2.97;2.00;;;17.40;85.20;;;;;;5043289;28;20022;-85
2022/10/13 13:00:19;;;;;;;3.60;1.52;;;17.40;85.40;;;;;;5044606;28;20065;-86
2022/10/13 13:03:03;;;;;;;3.00;2.00;;;17.30;85.20;;;;;;5045509;28;20479;-85
2022/10/13 13:05:34;;;;;;;3.60;1.65;;;17.30;85.60;;;;;;5048559;28;20067;-86
2022/10/13 13:08:01;;;;;;;3.90;1.80;;;17.30;85.60;;;;;;5045334;28;20025;-86
2022/10/13 13:10:27;;;;;;;2.35;1.40;;;17.30;85.50;;;;;;5046930;28;20491;-84
2022/10/13 13:12:54;;;;;;;2.30;1.23;;;17.40;85.30;;;;;;5044856;28;20473;-84
2022/10/13 13:15:31;;;;;;;3.38;1.48;;;17.40;85.10;;;;;;5043599;28;20029;-85